Time;durP1;ratioP1;P1;durP2;ratioP2;P2;SDS_P1;SDS_P2;PMS_P1;PMS_P2;Temp;Humidity;BMP_temperature;BMP_pressure;BME280_temperature;BME280_humidity;BME280_pressure;Samples;Min_cycle;Max_cycle;Signal;HPM_P1;HPM_P2
2023/06/28 00:00:01;;;;;;;6.20;2.23;;;;;;;18.36;100.00;99187.53;5128745;27;20187;-78
2023/06/28 00:02:35;;;;;;;3.87;1.90;;;;;;;18.32;100.00;99199.53;5130720;27;20282;-77
2023/06/28 00:05:08;;;;;;;4.30;1.70;;;;;;;18.46;100.00;99195.56;5125646;27;20201;-77
2023/06/28 00:07:36;;;;;;;5.17;2.00;;;;;;;18.35;100.00;99190.38;5125435;27;20191;-77
2023/06/28 00:10:05;;;;;;;4.53;2.03;;;;;;;18.25;100.00;99193.94;5120925;27;20227;-77
2023/06/28 00:12:34;;;;;;;4.43;1.90;;;;;;;18.35;100.00;99183.19;5133445;27;20191;-77
2023/06/28 00:15:03;;;;;;;2.90;1.87;;;;;;;18.40;100.00;99194.28;5128353;27;20392;-77
2023/06/28 00:17:32;;;;;;;4.63;2.20;;;;;;;18.39;100.00;99195.28;5127501;27;20232;-77
2023/06/28 00:20:05;;;;;;;6.20;2.10;;;;;;;18.42;100.00;99200.34;5126121;27;20357;-77
2023/06/28 00:22:36;;;;;;;4.63;2.20;;;;;;;18.41;100.00;99195.13;5125231;27;20198;-77
2023/06/28 00:25:05;;;;;;;5.90;2.03;;;;;;;18.39;100.00;99206.00;5126487;27;20198;-78
2023/06/28 00:27:34;;;;;;;6.63;2.30;;;;;;;18.36;100.00;99203.63;5127309;27;20215;-77
2023/06/28 00:30:02;;;;;;;3.80;2.20;;;;;;;18.19;100.00;99199.88;5127702;27;20213;-77
2023/06/28 00:32:31;;;;;;;5.43;1.80;;;;;;;18.18;100.00;99200.03;5120946;27;20198;-78
2023/06/28 00:34:59;;;;;;;5.10;2.03;;;;;;;18.03;100.00;99205.81;5123825;27;20239;-77
2023/06/28 00:37:28;;;;;;;4.47;2.30;;;;;;;17.99;100.00;99203.59;5126017;27;20221;-77
2023/06/28 00:39:57;;;;;;;4.07;1.90;;;;;;;17.90;100.00;99201.78;5129952;27;20679;-77
2023/06/28 00:42:27;;;;;;;5.20;2.77;;;;;;;18.06;100.00;99199.34;5118453;27;20339;-77
2023/06/28 00:44:56;;;;;;;5.17;2.20;;;;;;;17.99;100.00;99208.97;5126482;28;20194;-77
2023/06/28 00:47:26;;;;;;;2.83;2.00;;;;;;;17.97;100.00;99208.25;5120816;27;20300;-77
2023/06/28 00:49:55;;;;;;;3.97;2.40;;;;;;;17.87;100.00;99210.09;5125696;27;20206;-77
2023/06/28 00:52:24;;;;;;;3.80;2.03;;;;;;;17.88;100.00;99219.84;5021776;28;20205;-77
2023/06/28 00:54:52;;;;;;;4.93;2.03;;;;;;;17.96;100.00;99219.97;5018852;28;20300;-77
2023/06/28 00:57:23;;;;;;;4.27;2.20;;;;;;;17.87;100.00;99221.69;5018125;28;20271;-77
2023/06/28 00:59:53;;;;;;;3.93;2.07;;;;;;;17.94;100.00;99216.56;5015792;28;20273;-77
2023/06/28 01:02:22;;;;;;;6.40;2.23;;;;;;;17.86;100.00;99222.66;5018476;28;20218;-77
2023/06/28 01:04:53;;;;;;;5.23;1.90;;;;;;;17.81;100.00;99222.22;5022526;28;20301;-77
2023/06/28 01:07:22;;;;;;;4.80;2.27;;;;;;;17.62;100.00;99225.72;5023454;28;20202;-77
2023/06/28 01:09:50;;;;;;;4.23;2.03;;;;;;;17.51;100.00;99225.88;5044890;27;20282;-77
2023/06/28 01:12:19;;;;;;;5.10;2.53;;;;;;;17.36;100.00;99219.22;5126931;27;20201;-77
2023/06/28 01:14:49;;;;;;;5.20;2.37;;;;;;;17.39;100.00;99217.13;5119870;27;20226;-77
2023/06/28 01:17:17;;;;;;;5.53;1.80;;;;;;;17.39;100.00;99219.81;5125377;27;20229;-77
2023/06/28 01:19:45;;;;;;;3.20;2.07;;;;;;;17.27;100.00;99225.41;5127864;27;20246;-77
2023/06/28 01:22:15;;;;;;;6.93;2.80;;;;;;;17.18;100.00;99235.16;5125591;27;20693;-77
2023/06/28 01:24:46;;;;;;;5.73;2.20;;;;;;;17.34;100.00;99230.09;5128218;27;20198;-77
2023/06/28 01:27:15;;;;;;;5.17;2.23;;;;;;;16.85;100.00;99231.81;5133793;27;20198;-77
2023/06/28 01:29:44;;;;;;;3.80;2.23;;;;;;;16.77;100.00;99234.31;5125815;27;20210;-77
2023/06/28 01:32:12;;;;;;;4.60;2.10;;;;;;;16.63;100.00;99233.81;5127915;27;20194;-77
2023/06/28 01:34:41;;;;;;;4.07;2.27;;;;;;;16.53;100.00;99231.97;5126337;27;20190;-77
2023/06/28 01:37:09;;;;;;;5.77;2.30;;;;;;;16.50;100.00;99236.72;5126207;27;20669;-77
2023/06/28 01:39:38;;;;;;;4.87;2.50;;;;;;;16.40;100.00;99235.81;5124109;27;20269;-77
2023/06/28 01:42:09;;;;;;;6.50;2.50;;;;;;;16.43;100.00;99232.91;5130127;27;20261;-77
2023/06/28 01:44:39;;;;;;;6.37;2.37;;;;;;;16.32;100.00;99231.16;5125224;27;20278;-77
2023/06/28 01:47:09;;;;;;;5.70;2.37;;;;;;;16.45;100.00;99238.94;5132865;27;20273;-77
2023/06/28 01:49:40;;;;;;;5.93;2.40;;;;;;;16.49;100.00;99227.84;5130427;27;20213;-77
2023/06/28 01:52:09;;;;;;;3.87;2.10;;;;;;;16.47;100.00;99227.13;5132319;27;20222;-77
2023/06/28 01:54:37;;;;;;;5.47;2.60;;;;;;;16.55;100.00;99224.63;5123752;27;20346;-76
2023/06/28 01:57:06;;;;;;;4.80;2.23;;;;;;;16.57;100.00;99227.16;5125827;27;20246;-77
2023/06/28 01:59:36;;;;;;;6.27;2.60;;;;;;;16.60;100.00;99227.78;5128048;27;20198;-77
2023/06/28 02:02:06;;;;;;;6.23;2.53;;;;;;;16.70;100.00;99229.66;5124552;27;20214;-76
2023/06/28 02:04:35;;;;;;;4.10;2.40;;;;;;;16.65;100.00;99237.22;5129277;27;20194;-77
2023/06/28 02:07:04;;;;;;;5.20;2.40;;;;;;;16.64;100.00;99231.00;5120805;27;20190;-77
2023/06/28 02:09:32;;;;;;;4.73;2.60;;;;;;;16.63;100.00;99228.47;5074090;27;20195;-76
2023/06/28 02:12:01;;;;;;;6.97;2.73;;;;;;;16.74;100.00;99231.09;5127571;27;20224;-77
2023/06/28 02:14:29;;;;;;;4.73;2.83;;;;;;;16.79;100.00;99235.06;5130014;27;20212;-77
2023/06/28 02:16:59;;;;;;;4.57;2.40;;;;;;;16.49;100.00;99238.53;5127867;27;20212;-77
2023/06/28 02:19:33;;;;;;;6.10;2.40;;;;;;;16.66;100.00;99228.19;5128477;27;20187;-77
2023/06/28 02:22:01;;;;;;;5.50;2.60;;;;;;;16.75;100.00;99230.94;5127675;27;20224;-77
2023/06/28 02:24:29;;;;;;;3.97;2.20;;;;;;;16.75;100.00;99225.59;5126920;27;20202;-77
2023/06/28 02:26:58;;;;;;;3.40;2.33;;;;;;;16.84;100.00;99231.97;5122008;27;20202;-77
2023/06/28 02:29:26;;;;;;;6.17;2.50;;;;;;;16.83;100.00;99233.78;5130404;27;20687;-77
2023/06/28 02:31:55;;;;;;;6.27;2.70;;;;;;;16.87;100.00;99240.53;5129391;27;20640;-77
2023/06/28 02:34:24;;;;;;;5.80;2.73;;;;;;;16.55;100.00;99232.66;5126245;27;20235;-77
2023/06/28 02:36:53;;;;;;;6.87;2.80;;;;;;;16.48;100.00;99238.69;5125781;27;20201;-77
2023/06/28 02:39:22;;;;;;;7.97;2.73;;;;;;;16.57;100.00;99237.88;5130776;27;20313;-77
2023/06/28 02:41:50;;;;;;;5.87;2.53;;;;;;;16.72;100.00;99235.72;5129997;27;20233;-77
2023/06/28 02:44:19;;;;;;;5.23;2.50;;;;;;;16.66;100.00;99239.75;5125813;27;20209;-77
2023/06/28 02:46:47;;;;;;;5.03;2.50;;;;;;;16.70;100.00;99240.38;5128090;27;20194;-77
2023/06/28 02:49:17;;;;;;;5.30;2.60;;;;;;;16.64;100.00;99241.72;5130715;27;20187;-76
2023/06/28 02:51:47;;;;;;;5.10;2.77;;;;;;;16.51;100.00;99246.44;5123713;27;20215;-76
2023/06/28 02:54:16;;;;;;;5.97;2.73;;;;;;;16.41;100.00;99250.91;5132302;27;20656;-77
2023/06/28 02:56:44;;;;;;;6.70;2.80;;;;;;;16.62;100.00;99256.22;5086921;28;20227;-77
2023/06/28 02:59:13;;;;;;;5.67;2.60;;;;;;;16.56;100.00;99247.72;5090568;28;20219;-76
2023/06/28 03:01:41;;;;;;;5.27;2.03;;;;;;;16.46;100.00;99254.00;5086863;28;20207;-77
2023/06/28 03:04:12;;;;;;;4.97;2.67;;;;;;;16.41;100.00;99256.25;5079201;28;20279;-77
2023/06/28 03:06:41;;;;;;;3.37;2.30;;;;;;;16.27;100.00;99252.06;5089405;28;20200;-77
2023/06/28 03:09:11;;;;;;;3.33;2.20;;;;;;;15.64;100.00;99260.09;5084738;28;20213;-77
2023/06/28 03:11:39;;;;;;;4.87;2.63;;;;;;;15.68;100.00;99266.00;5083220;28;20192;-77
2023/06/28 03:14:07;;;;;;;3.17;2.20;;;;;;;15.87;100.00;99263.50;5083103;28;20206;-77
2023/06/28 03:16:37;;;;;;;5.90;2.23;;;;;;;15.99;100.00;99267.78;5084699;28;20199;-77
2023/06/28 03:19:07;;;;;;;6.43;2.33;;;;;;;16.12;100.00;99261.44;5082701;28;20223;-77
2023/06/28 03:21:35;;;;;;;5.87;2.17;;;;;;;16.31;100.00;99259.72;5116226;27;20218;-76
2023/06/28 03:24:04;;;;;;;4.03;2.60;;;;;;;16.50;100.00;99253.63;5126403;27;20191;-77
2023/06/28 03:26:34;;;;;;;5.23;2.30;;;;;;;16.62;100.00;99251.72;5064085;28;20200;-76
2023/06/28 03:29:02;;;;;;;4.67;2.20;;;;;;;16.63;100.00;99261.41;5062320;28;20211;-77
2023/06/28 03:31:31;;;;;;;5.70;2.47;;;;;;;16.71;100.00;99256.28;5065899;28;20197;-77
2023/06/28 03:33:59;;;;;;;5.87;2.70;;;;;;;16.69;100.00;99254.69;5064891;28;20200;-76
2023/06/28 03:36:29;;;;;;;7.93;2.40;;;;;;;16.82;100.00;99250.81;5063477;28;20200;-77
2023/06/28 03:38:58;;;;;;;4.67;2.40;;;;;;;16.83;100.00;99246.31;5067595;28;20220;-76
2023/06/28 03:41:28;;;;;;;5.87;2.40;;;;;;;16.78;100.00;99240.50;5065556;28;20224;-77
2023/06/28 03:43:58;;;;;;;6.67;2.30;;;;;;;16.85;100.00;99247.88;5061655;28;20193;-77
2023/06/28 03:46:26;;;;;;;6.20;2.67;;;;;;;16.74;100.00;99241.78;5063982;28;20200;-76
2023/06/28 03:48:55;;;;;;;5.23;2.47;;;;;;;16.93;100.00;99241.84;5068103;28;20216;-77
2023/06/28 03:51:23;;;;;;;6.17;3.27;;;;;;;16.92;100.00;99250.00;5100066;27;20614;-77
2023/06/28 03:53:52;;;;;;;5.77;2.50;;;;;;;16.82;100.00;99245.47;5129500;27;20220;-76
2023/06/28 03:56:20;;;;;;;4.57;2.73;;;;;;;16.65;100.00;99258.59;5131019;27;20277;-77
2023/06/28 03:58:50;;;;;;;5.87;2.90;;;;;;;16.47;100.00;99250.34;5121628;27;20222;-77
2023/06/28 04:01:20;;;;;;;5.27;2.70;;;;;;;16.54;100.00;99251.53;5125603;27;20202;-77
2023/06/28 04:03:49;;;;;;;6.37;2.77;;;;;;;16.52;100.00;99253.50;5134091;27;20195;-77
2023/06/28 04:06:17;;;;;;;7.73;2.70;;;;;;;16.63;100.00;99255.22;5128413;27;20281;-77
2023/06/28 04:08:47;;;;;;;5.57;2.80;;;;;;;16.74;100.00;99255.16;5129106;27;20196;-77
2023/06/28 04:11:15;;;;;;;8.50;3.13;;;;;;;16.71;100.00;99256.28;5127558;27;20202;-77
2023/06/28 04:13:44;;;;;;;7.20;3.20;;;;;;;16.65;100.00;99263.94;5130826;27;20297;-77
2023/06/28 04:16:12;;;;;;;8.33;3.30;;;;;;;16.83;100.00;99257.03;5120205;27;20205;-77
2023/06/28 04:18:43;;;;;;;4.63;2.80;;;;;;;16.86;100.00;99256.75;5128085;27;20218;-76
2023/06/28 04:21:11;;;;;;;4.73;3.10;;;;;;;17.02;100.00;99264.25;5125515;27;20186;-76
2023/06/28 04:23:40;;;;;;;6.20;3.00;;;;;;;17.10;100.00;99264.44;5133589;27;20222;-76
2023/06/28 04:26:08;;;;;;;8.00;2.90;;;;;;;17.17;100.00;99263.72;5126952;27;20194;-77
2023/06/28 04:28:36;;;;;;;4.90;2.77;;;;;;;17.25;100.00;99263.03;5120050;27;20205;-77
2023/06/28 04:31:05;;;;;;;9.03;3.00;;;;;;;17.09;100.00;99268.94;5124322;27;20198;-77
2023/06/28 04:33:35;;;;;;;5.87;2.63;;;;;;;17.26;100.00;99271.91;5127821;27;20198;-77
2023/06/28 04:36:05;;;;;;;5.83;3.40;;;;;;;17.33;100.00;99271.25;5126639;27;20273;-77
2023/06/28 04:38:34;;;;;;;6.77;3.00;;;;;;;17.33;100.00;99271.25;5127834;27;20245;-77
2023/06/28 04:41:05;;;;;;;8.20;3.03;;;;;;;17.27;100.00;99269.09;5124457;27;20202;-77
2023/06/28 04:43:40;;;;;;;5.87;2.80;;;;;;;17.36;100.00;99268.28;5126315;27;20376;-77
2023/06/28 04:46:11;;;;;;;6.40;2.57;;;;;;;17.30;100.00;99268.84;5124557;28;20201;-77
2023/06/28 04:48:44;;;;;;;7.10;3.33;;;;;;;17.30;100.00;99268.00;5128163;27;20196;-77
2023/06/28 04:51:13;;;;;;;6.30;2.97;;;;;;;17.35;100.00;99263.91;5137561;27;20202;-77
2023/06/28 04:53:42;;;;;;;9.07;3.07;;;;;;;17.49;100.00;99269.88;5125917;27;20194;-77
2023/06/28 04:56:12;;;;;;;6.13;2.93;;;;;;;17.48;100.00;99269.03;5134892;27;20198;-77
2023/06/28 04:58:40;;;;;;;5.53;2.70;;;;;;;17.46;100.00;99281.69;5048703;28;20220;-77
2023/06/28 05:01:11;;;;;;;5.47;2.57;;;;;;;17.53;100.00;99276.63;5043375;28;20193;-77
2023/06/28 05:03:40;;;;;;;9.07;2.87;;;;;;;17.43;100.00;99277.44;5048582;28;20216;-77
2023/06/28 05:06:10;;;;;;;4.73;2.93;;;;;;;17.27;100.00;99278.97;5044319;28;20200;-77
2023/06/28 05:08:40;;;;;;;5.37;2.67;;;;;;;17.20;100.00;99275.16;5045709;28;20201;-77
2023/06/28 05:11:08;;;;;;;7.93;3.00;;;;;;;17.24;100.00;99272.06;5048625;28;20272;-77
2023/06/28 05:13:37;;;;;;;8.03;2.77;;;;;;;17.19;100.00;99274.31;5053746;28;20190;-77
2023/06/28 05:16:05;;;;;;;6.00;2.70;;;;;;;17.28;100.00;99278.84;5064422;27;20191;-77
2023/06/28 05:18:34;;;;;;;5.30;2.67;;;;;;;17.39;100.00;99277.88;5128658;27;20204;-76
2023/06/28 05:21:02;;;;;;;5.93;3.10;;;;;;;17.46;100.00;99279.00;5130651;27;20216;-77
2023/06/28 05:23:30;;;;;;;5.97;2.63;;;;;;;17.53;100.00;99282.81;5134082;27;20201;-76
2023/06/28 05:26:01;;;;;;;5.83;2.83;;;;;;;17.57;100.00;99273.53;5129808;27;20200;-77
2023/06/28 05:28:29;;;;;;;4.53;2.27;;;;;;;17.70;100.00;99270.59;5128865;27;20209;-77
2023/06/28 05:30:57;;;;;;;5.50;2.50;;;;;;;17.66;100.00;99270.03;5135626;27;20198;-77
2023/06/28 05:33:26;;;;;;;4.10;2.33;;;;;;;17.60;100.00;99280.44;5132234;27;20229;-77
2023/06/28 05:35:54;;;;;;;3.80;2.20;;;;;;;17.69;100.00;99279.59;5128750;27;20212;-77
2023/06/28 05:38:22;;;;;;;6.47;2.30;;;;;;;17.68;100.00;99276.09;5132330;27;20195;-77
2023/06/28 05:40:54;;;;;;;4.10;2.20;;;;;;;17.80;100.00;99271.47;5130593;27;20222;-76
2023/06/28 05:43:25;;;;;;;4.20;2.30;;;;;;;17.83;100.00;99273.84;5113316;28;20226;-76
2023/06/28 05:45:54;;;;;;;3.90;2.50;;;;;;;17.85;100.00;99271.00;5109344;28;20232;-76
2023/06/28 05:48:22;;;;;;;7.60;2.30;;;;;;;17.88;100.00;99278.78;5113020;28;20195;-77
2023/06/28 05:50:53;;;;;;;5.97;2.67;;;;;;;17.89;100.00;99278.66;5115991;28;20199;-77
2023/06/28 05:53:21;;;;;;;6.53;2.30;;;;;;;17.97;100.00;99280.63;5106502;28;20195;-77
2023/06/28 05:55:49;;;;;;;4.10;2.20;;;;;;;18.06;100.00;99276.25;5113005;28;20223;-77
2023/06/28 05:58:18;;;;;;;3.53;2.27;;;;;;;18.15;100.00;99280.75;5108391;28;20195;-77
2023/06/28 06:00:48;;;;;;;4.50;2.27;;;;;;;18.24;100.00;99274.53;5104423;28;20223;-77
2023/06/28 06:03:17;;;;;;;5.07;2.37;;;;;;;18.20;100.00;99273.94;5102718;28;20202;-76
2023/06/28 06:05:46;;;;;;;7.63;2.30;;;;;;;18.35;100.00;99269.00;5112278;28;20198;-77
2023/06/28 06:08:14;;;;;;;4.07;2.20;;;;;;;18.36;100.00;99276.06;5092363;28;20194;-77
2023/06/28 06:10:43;;;;;;;4.13;2.33;;;;;;;18.32;100.00;99280.00;5110225;28;20195;-77
2023/06/28 06:13:11;;;;;;;4.30;2.00;;;;;;;18.45;100.00;99277.03;5105082;28;20199;-77
2023/06/28 06:15:40;;;;;;;4.20;2.33;;;;;;;18.42;100.00;99282.66;5108882;28;20207;-77
2023/06/28 06:18:10;;;;;;;7.10;2.30;;;;;;;18.50;100.00;99278.25;5106059;28;20214;-77
2023/06/28 06:20:38;;;;;;;5.43;2.23;;;;;;;18.50;100.00;99280.94;5111539;28;20264;-77
2023/06/28 06:23:07;;;;;;;5.53;2.43;;;;;;;18.54;100.00;99273.47;5110021;28;20206;-76
2023/06/28 06:25:36;;;;;;;3.20;2.20;;;;;;;18.60;100.00;99280.91;5111649;28;20195;-77
2023/06/28 06:28:05;;;;;;;5.63;2.10;;;;;;;18.80;100.00;99276.34;5112251;28;20195;-77
2023/06/28 06:30:33;;;;;;;4.10;2.17;;;;;;;18.79;100.00;99278.19;5066811;28;20235;-77
2023/06/28 06:33:01;;;;;;;5.80;2.20;;;;;;;18.78;100.00;99279.19;5060763;28;20205;-77
2023/06/28 06:35:31;;;;;;;6.80;2.10;;;;;;;18.71;100.00;99279.91;5064474;28;20188;-77
2023/06/28 06:38:00;;;;;;;6.00;2.00;;;;;;;18.86;100.00;99287.34;5072202;28;20203;-77
2023/06/28 06:40:29;;;;;;;3.83;2.23;;;;;;;18.88;100.00;99285.34;5068802;28;20339;-77
2023/06/28 06:42:57;;;;;;;3.87;2.10;;;;;;;19.06;100.00;99289.94;5068412;28;20216;-77
2023/06/28 06:45:26;;;;;;;3.90;2.10;;;;;;;18.99;100.00;99296.91;5067923;28;20200;-77
2023/06/28 06:47:54;;;;;;;5.03;2.27;;;;;;;19.00;100.00;99303.94;5065290;28;20204;-78
2023/06/28 06:50:23;;;;;;;4.20;2.00;;;;;;;19.05;100.00;99302.53;5066932;28;20266;-77
2023/06/28 06:52:53;;;;;;;5.50;2.30;;;;;;;18.99;100.00;99291.53;5068137;28;20201;-77
2023/06/28 06:55:22;;;;;;;3.10;2.10;;;;;;;19.14;100.00;99290.06;5094219;27;20202;-77
2023/06/28 06:57:51;;;;;;;6.17;2.40;;;;;;;18.94;100.00;99283.09;5124700;27;20222;-77
2023/06/28 07:00:20;;;;;;;5.50;2.00;;;;;;;19.13;100.00;99286.53;5128574;27;20210;-78
2023/06/28 07:02:48;;;;;;;6.30;2.40;;;;;;;19.24;100.00;99279.25;5135177;27;20645;-77
2023/06/28 07:05:16;;;;;;;10.30;2.53;;;;;;;19.31;100.00;99291.09;5126865;27;20194;-77
2023/06/28 07:07:44;;;;;;;6.53;2.20;;;;;;;19.54;100.00;99294.19;5051726;28;20193;-78
2023/06/28 07:10:14;;;;;;;7.23;2.23;;;;;;;19.70;100.00;99289.03;5048208;28;20197;-78
2023/06/28 07:12:43;;;;;;;4.63;2.20;;;;;;;19.65;100.00;99292.16;5044810;28;20221;-78
2023/06/28 07:15:11;;;;;;;4.87;2.13;;;;;;;19.83;100.00;99300.22;5044935;28;20201;-78
2023/06/28 07:17:39;;;;;;;6.80;2.30;;;;;;;19.97;100.00;99294.28;5048111;28;20197;-78
2023/06/28 07:20:09;;;;;;;5.00;2.20;;;;;;;19.91;100.00;99286.03;5046092;28;20228;-78
2023/06/28 07:22:38;;;;;;;5.90;2.13;;;;;;;20.26;100.00;99287.81;5049024;28;20197;-77
2023/06/28 07:25:07;;;;;;;6.03;2.47;;;;;;;20.37;100.00;99284.03;5058047;27;20274;-78
2023/06/28 07:27:36;;;;;;;3.83;2.50;;;;;;;20.14;100.00;99281.00;5095361;27;20186;-78
2023/06/28 07:30:07;;;;;;;5.27;2.03;;;;;;;20.30;100.00;99284.66;5128499;27;20190;-78
2023/06/28 07:32:37;;;;;;;8.27;2.60;;;;;;;20.27;100.00;99278.75;5131679;27;20186;-78
2023/06/28 07:35:06;;;;;;;9.17;2.57;;;;;;;20.31;100.00;99285.50;5127637;27;20255;-78
2023/06/28 07:37:35;;;;;;;7.10;2.43;;;;;;;20.12;100.00;99281.16;5122437;27;20197;-77
2023/06/28 07:40:04;;;;;;;8.00;2.90;;;;;;;19.60;100.00;99283.72;5128980;27;20202;-77
2023/06/28 07:42:32;;;;;;;7.27;2.63;;;;;;;20.13;100.00;99282.00;5082017;27;20702;-77
2023/06/28 07:45:01;;;;;;;5.57;2.73;;;;;;;20.01;100.00;99281.41;5124005;27;20201;-78
2023/06/28 07:47:30;;;;;;;6.30;2.30;;;;;;;20.19;100.00;99284.91;5079429;27;20194;-78
2023/06/28 07:49:59;;;;;;;6.30;2.43;;;;;;;20.52;100.00;99280.63;5127584;27;20691;-77
2023/06/28 07:52:27;;;;;;;6.03;2.60;;;;;;;20.74;98.78;99275.69;5127233;27;20194;-78
2023/06/28 07:54:55;;;;;;;6.63;2.50;;;;;;;20.21;100.00;99274.00;5123188;27;20191;-77
2023/06/28 07:57:24;;;;;;;9.10;2.80;;;;;;;19.98;100.00;99276.34;5124954;27;20214;-77
2023/06/28 07:59:53;;;;;;;6.10;2.60;;;;;;;19.87;100.00;99261.28;5132750;27;20198;-77
2023/06/28 08:02:24;;;;;;;9.97;2.90;;;;;;;20.17;100.00;99267.22;5129514;27;20684;-78
2023/06/28 08:04:53;;;;;;;7.07;2.20;;;;;;;20.49;100.00;99272.88;5129858;27;20186;-77
2023/06/28 08:07:21;;;;;;;8.90;2.70;;;;;;;20.51;99.84;99273.56;5134077;27;20269;-77
2023/06/28 08:09:49;;;;;;;5.23;2.50;;;;;;;20.67;98.91;99263.91;5128288;27;20213;-76
2023/06/28 08:12:18;;;;;;;5.17;2.37;;;;;;;20.89;98.36;99257.09;5122405;27;20194;-78
2023/06/28 08:14:46;;;;;;;5.23;2.67;;;;;;;21.06;94.97;99270.47;5127923;27;20227;-78
2023/06/28 08:17:16;;;;;;;4.37;2.30;;;;;;;21.30;94.22;99261.66;5123931;27;20200;-77
2023/06/28 08:19:46;;;;;;;7.83;2.33;;;;;;;21.32;93.58;99264.19;5130815;27;20202;-77
2023/06/28 08:22:14;;;;;;;6.43;2.50;;;;;;;21.58;90.92;99261.38;5130995;27;20218;-78
2023/06/28 08:24:42;;;;;;;6.63;2.47;;;;;;;21.17;94.84;99263.94;5127267;27;20198;-78
2023/06/28 08:27:11;;;;;;;4.30;2.20;;;;;;;21.20;93.71;99268.16;5124049;27;20205;-78
2023/06/28 08:29:40;;;;;;;5.50;2.40;;;;;;;21.61;90.18;99269.97;5127541;27;20202;-77
2023/06/28 08:32:10;;;;;;;6.07;2.53;;;;;;;21.30;92.20;99264.34;5128928;27;20190;-78
2023/06/28 08:34:39;;;;;;;6.53;2.60;;;;;;;20.63;95.80;99265.22;5121765;27;20201;-77
2023/06/28 08:37:09;;;;;;;7.78;2.60;;;;;;;21.09;92.72;99256.69;5129464;27;20229;-78
2023/06/28 08:39:37;;;;;;;9.35;2.42;;;;;;;21.22;90.70;99261.59;5130646;27;20218;-77
2023/06/28 08:42:06;;;;;;;7.23;2.83;;;;;;;21.12;90.02;99264.44;5125744;27;20226;-78
2023/06/28 08:44:38;;;;;;;7.18;2.30;;;;;;;21.01;89.23;99263.88;5099666;28;20199;-78
2023/06/28 08:47:07;;;;;;;7.23;2.93;;;;;;;20.32;92.67;99262.97;5110865;28;20191;-77
2023/06/28 08:49:37;;;;;;;5.40;2.43;;;;;;;20.60;89.23;99266.38;5106479;28;20213;-78
2023/06/28 08:52:06;;;;;;;4.10;2.30;;;;;;;20.67;89.10;99271.97;5108073;28;20213;-78
2023/06/28 08:54:38;;;;;;;6.47;2.57;;;;;;;21.08;89.75;99267.63;5101698;28;20199;-78
2023/06/28 08:57:08;;;;;;;7.30;2.40;;;;;;;21.37;90.62;99262.69;5108220;28;20241;-78
2023/06/28 08:59:40;;;;;;;8.27;2.08;;;;;;;21.66;88.01;99264.94;5103299;28;20224;-78
2023/06/28 09:02:11;;;;;;;9.93;2.50;;;;;;;21.46;87.12;99270.81;5110617;28;20214;-78
2023/06/28 09:04:39;;;;;;;5.20;2.30;;;;;;;21.85;84.13;99263.78;5103020;28;20195;-78
2023/06/28 09:07:08;;;;;;;6.50;2.80;;;;;;;21.68;83.99;99262.91;5107952;28;20219;-78
2023/06/28 09:09:42;;;;;;;7.50;2.50;;;;;;;22.00;83.07;99263.94;5119037;27;20200;-78
2023/06/28 09:12:12;;;;;;;6.18;2.40;;;;;;;22.12;79.95;99259.94;5130413;27;20198;-78
2023/06/28 09:14:40;;;;;;;7.65;2.47;;;;;;;22.30;79.46;99261.63;5122929;27;20198;-78
2023/06/28 09:17:09;;;;;;;6.70;2.70;;;;;;;22.26;79.23;99253.84;5133436;27;20226;-78
2023/06/28 09:19:37;;;;;;;6.65;2.95;;;;;;;22.47;79.69;99249.75;5118378;27;20205;-78
2023/06/28 09:22:08;;;;;;;6.68;2.40;;;;;;;22.06;84.36;99243.56;5130295;27;20224;-78
2023/06/28 09:24:39;;;;;;;13.07;2.80;;;;;;;21.56;81.65;99248.09;5125448;27;20281;-78
2023/06/28 09:27:08;;;;;;;10.00;3.10;;;;;;;21.14;88.41;99251.66;5126463;27;20239;-77
2023/06/28 09:29:37;;;;;;;6.57;2.67;;;;;;;21.55;85.13;99259.88;5122219;27;20187;-78
2023/06/28 09:32:06;;;;;;;4.47;2.33;;;;;;;21.83;82.44;99254.19;5123186;28;20198;-78
2023/06/28 09:34:37;;;;;;;5.40;2.80;;;;;;;21.38;85.83;99259.00;5130463;27;20213;-78
2023/06/28 09:37:06;;;;;;;6.30;2.83;;;;;;;21.16;85.29;99256.88;5128856;27;20214;-78
2023/06/28 09:39:38;;;;;;;7.32;2.60;;;;;;;21.23;85.02;99257.06;5131436;27;20194;-77
2023/06/28 09:42:07;;;;;;;6.37;2.50;;;;;;;21.28;81.87;99255.59;5136666;27;20233;-78
2023/06/28 09:44:37;;;;;;;6.03;2.67;;;;;;;21.35;81.04;99255.78;5127170;27;20206;-78
2023/06/28 09:47:07;;;;;;;6.10;2.37;;;;;;;21.69;81.48;99255.66;5131420;27;20273;-78
2023/06/28 09:49:35;;;;;;;8.60;2.67;;;;;;;21.55;81.67;99257.19;5136753;27;20190;-77
2023/06/28 09:52:10;;;;;;;7.93;2.97;;;;;;;21.11;81.14;99254.66;5128308;27;20201;-78
2023/06/28 09:54:44;;;;;;;4.40;2.50;;;;;;;21.48;76.72;99261.53;5132038;27;20187;-78
2023/06/28 09:57:13;;;;;;;7.75;2.55;;;;;;;21.64;75.11;99272.38;5133386;27;20202;-78
2023/06/28 09:59:44;;;;;;;5.38;2.33;;;;;;;;;;5132223;27;20235;-78
2023/06/28 10:02:14;;;;;;;5.78;2.00;;;;;;;22.24;67.43;99269.38;5128870;27;20218;-78
2023/06/28 10:04:43;;;;;;;7.63;2.20;;;;;;;22.47;68.69;99265.97;5129968;27;20186;-78
2023/06/28 10:07:13;;;;;;;5.80;2.38;;;;;;;22.46;68.90;99273.22;5132092;27;20202;-78
2023/06/28 10:09:43;;;;;;;4.22;2.20;;;;;;;22.44;71.02;99277.94;5124441;27;20232;-78
2023/06/28 10:12:15;;;;;;;5.88;2.40;;;;;;;22.19;74.17;99266.34;5131340;27;20343;-78
2023/06/28 10:14:49;;;;;;;3.47;2.20;;;;;;;21.28;79.21;99274.47;5135025;27;20190;-78
2023/06/28 10:17:19;;;;;;;7.57;2.50;;;;;;;21.81;75.79;99267.84;5130325;27;20205;-78
2023/06/28 10:19:49;;;;;;;5.07;2.25;;;;;;;21.57;73.04;99273.19;5131514;27;20186;-78
2023/06/28 10:22:18;;;;;;;6.10;2.40;;;;;;;21.62;73.68;99274.38;5130916;27;20298;-78
2023/06/28 10:24:49;;;;;;;7.35;2.45;;;;;;;22.04;72.06;99265.31;5128740;27;20199;-78
2023/06/28 10:27:18;;;;;;;6.00;2.70;;;;;;;22.33;71.59;99264.81;5066620;28;20192;-78
2023/06/28 10:29:48;;;;;;;5.63;2.72;;;;;;;21.39;79.71;99259.84;5063340;28;20204;-78
2023/06/28 10:32:16;;;;;;;6.07;2.60;;;;;;;21.39;81.83;99260.69;5067202;28;20235;-77
2023/06/28 10:34:47;;;;;;;5.00;2.63;;;;;;;21.96;80.80;99258.06;5015339;28;20265;-78
2023/06/28 10:37:20;;;;;;;3.75;2.30;;;;;;;;;;5068980;28;20280;-78
2023/06/28 10:39:51;;;;;;;6.43;2.63;;;;;;;22.48;77.38;99243.34;5064626;28;20204;-78
2023/06/28 10:42:20;;;;;;;8.00;2.70;;;;;;;22.82;73.14;99248.50;5069513;28;20228;-78
2023/06/28 10:44:55;;;;;;;6.95;2.50;;;;;;;23.28;69.39;99236.00;5078033;27;20220;-78
2023/06/28 10:47:23;;;;;;;4.57;2.60;;;;;;;22.59;75.37;99244.88;5131634;27;20202;-78
2023/06/28 10:50:09;;;;;;;6.95;2.30;;;;;;;23.05;72.37;99240.47;5128210;27;20217;-78
2023/06/28 10:52:46;;;;;;;6.60;2.50;;;;;;;22.87;70.87;99240.72;5129250;27;20194;-78
2023/06/28 10:55:20;;;;;;;4.78;2.53;;;;;;;22.87;74.51;99248.84;5132881;27;20190;-78
2023/06/28 10:58:05;;;;;;;5.80;2.50;;;;;;;22.86;71.46;99241.75;5129673;27;20190;-77
2023/06/28 11:00:44;;;;;;;8.20;2.95;;;;;;;22.32;74.63;99238.84;5130719;27;20204;-78
2023/06/28 11:03:15;;;;;;;6.28;2.10;;;;;;;22.44;74.81;99234.75;5132253;27;20210;-78
2023/06/28 11:05:55;;;;;;;6.53;2.35;;;;;;;22.15;76.63;99239.88;5135546;27;20195;-78
2023/06/28 11:08:36;;;;;;;9.02;2.90;;;;;;;22.02;77.65;99228.72;5130857;27;20259;-78
2023/06/28 11:11:07;;;;;;;5.45;2.28;;;;;;;21.94;77.26;99230.41;5131166;27;20206;-78
2023/06/28 11:13:46;;;;;;;5.05;2.20;;;;;;;22.05;76.93;99237.31;5123755;27;20198;-77
2023/06/28 11:16:19;;;;;;;6.43;2.30;;;;;;;22.30;76.24;99237.34;5128378;27;20562;-78
2023/06/28 11:18:49;;;;;;;6.40;2.53;;;;;;;22.61;72.26;99235.56;5127962;27;20320;-77
2023/06/28 11:21:19;;;;;;;3.60;2.20;;;;;;;22.92;71.59;99237.50;5123885;27;20208;-78
2023/06/28 11:23:47;;;;;;;6.78;2.50;;;;;;;;;;5130682;27;20222;-78
2023/06/28 11:26:19;;;;;;;5.85;2.42;;;;;;;22.92;74.50;99241.06;5126189;27;20190;-77
2023/06/28 11:28:49;;;;;;;14.38;2.50;;;;;;;23.25;68.70;99243.59;5128105;27;20277;-78
2023/06/28 11:31:19;;;;;;;4.63;2.40;;;;;;;22.18;71.06;99239.53;5134528;27;20186;-77
2023/06/28 11:33:52;;;;;;;5.75;2.50;;;;;;;23.05;70.47;99244.03;5067078;28;20276;-79
2023/06/28 11:36:24;;;;;;;3.25;2.17;;;;;;;24.15;66.06;99238.44;5066925;28;20197;-78
2023/06/28 11:38:52;;;;;;;4.53;2.25;;;;;;;24.88;59.79;99239.53;5067519;28;20196;-78